Time;durP1;ratioP1;P1;durP2;ratioP2;P2;SDS_P1;SDS_P2;PMS_P1;PMS_P2;Temp;Humidity;BMP_temperature;BMP_pressure;BME280_temperature;BME280_humidity;BME280_pressure;Samples;Min_cycle;Max_cycle;Signal;HPM_P1;HPM_P2
2022/09/22 00:01:22;;;;;;;14.85;12.57;;;;;;;11.75;54.52;102448.84;4887857;28;119500;-68
2022/09/22 00:03:52;;;;;;;14.70;11.93;;;;;;;11.74;54.36;102447.13;4871091;28;124022;-68
2022/09/22 00:06:21;;;;;;;14.23;11.88;;;;;;;11.72;54.66;102448.09;4885040;28;123536;-68
2022/09/22 00:08:54;;;;;;;16.83;12.40;;;;;;;11.67;54.63;102441.06;4871895;28;119211;-68
2022/09/22 00:11:27;;;;;;;15.30;11.50;;;;;;;11.65;54.94;102444.69;4886297;28;119178;-68
2022/09/22 00:14:08;;;;;;;14.73;11.80;;;;;;;11.63;54.80;102438.53;4878901;28;124539;-68
2022/09/22 00:16:39;;;;;;;15.65;11.30;;;;;;;11.62;54.62;102447.41;4873309;28;124621;-69
2022/09/22 00:19:12;;;;;;;13.55;11.68;;;;;;;11.58;54.65;102441.28;4880763;28;119818;-68
2022/09/22 00:21:39;;;;;;;15.07;12.02;;;;;;;11.57;54.88;102444.00;4887287;28;118930;-68
2022/09/22 00:24:07;;;;;;;16.27;12.13;;;;;;;11.55;54.86;102436.06;4881353;28;123995;-68
2022/09/22 00:26:36;;;;;;;15.38;12.13;;;;;;;11.53;54.77;102437.00;4888993;28;123725;-68
2022/09/22 00:29:06;;;;;;;13.45;11.93;;;;;;;11.49;54.73;102431.78;4883792;28;118582;-68
2022/09/22 00:31:36;;;;;;;16.67;13.10;;;;;;;11.47;54.81;102438.91;4883019;28;119853;-68
2022/09/22 00:34:04;;;;;;;14.85;12.77;;;;;;;11.46;54.86;102438.94;4888676;28;124377;-68
2022/09/22 00:36:31;;;;;;;15.32;12.88;;;;;;;11.44;55.17;102436.31;4879988;28;123918;-68
2022/09/22 00:38:58;;;;;;;16.63;11.63;;;;;;;11.42;55.01;102435.47;4871187;28;119350;-68
2022/09/22 00:41:29;;;;;;;17.98;12.10;;;;;;;11.39;55.17;102430.25;4870769;28;118511;-68
2022/09/22 00:44:14;;;;;;;13.27;11.88;;;;;;;11.36;55.01;102425.03;4870100;28;124686;-68
2022/09/22 00:46:44;;;;;;;14.90;12.25;;;;;;;11.34;55.02;102426.84;4878375;28;123380;-68
2022/09/22 00:49:14;;;;;;;14.52;12.00;;;;;;;11.32;55.21;102428.66;4868191;28;120067;-68
2022/09/22 00:51:43;;;;;;;15.95;12.30;;;;;;;11.32;55.36;102423.34;4864363;28;120234;-69
2022/09/22 00:54:14;;;;;;;13.95;11.68;;;;;;;11.29;55.30;102424.28;4857309;28;124912;-68
2022/09/22 00:56:54;;;;;;;15.40;12.00;;;;;;;11.28;55.19;102416.34;4884678;28;122765;-68
2022/09/22 00:59:24;;;;;;;19.27;11.23;;;;;;;11.27;55.25;102419.94;4861832;28;119194;-67
2022/09/22 01:01:51;;;;;;;15.50;11.30;;;;;;;11.27;55.23;102415.47;4871651;28;119230;-68
2022/09/22 01:04:18;;;;;;;14.07;11.75;;;;;;;11.26;54.87;102418.16;4857116;28;124205;-68
2022/09/22 01:06:46;;;;;;;15.00;11.55;;;;;;;11.25;55.40;102411.13;4871420;28;124008;-68
2022/09/22 01:09:13;;;;;;;12.82;10.90;;;;;;;11.21;55.20;102409.47;4869416;28;119406;-68
2022/09/22 01:11:41;;;;;;;14.57;10.93;;;;;;;11.20;55.30;102410.34;4870697;28;118665;-68
2022/09/22 01:14:17;;;;;;;14.50;10.45;;;;;;;11.17;55.18;102397.16;4868301;28;123451;-67
2022/09/22 01:17:26;;;;;;;14.60;11.23;;;;;;;11.14;55.23;102397.25;4868553;28;123594;-67
2022/09/22 01:20:26;;;;;;;16.25;10.65;;;;;;;11.09;55.19;102394.69;4866101;28;119741;-67
2022/09/22 01:23:15;;;;;;;12.63;10.32;;;;;;;11.07;55.31;102392.06;4874527;28;119524;-68
2022/09/22 01:26:24;;;;;;;12.38;10.25;;;;;;;11.03;55.29;102400.13;4871653;28;123833;-68
2022/09/22 01:29:18;;;;;;;15.27;10.98;;;;;;;11.00;55.08;102395.78;4860679;28;123718;-68
2022/09/22 01:32:04;;;;;;;13.10;9.95;;;;;;;10.99;55.36;102388.72;4878662;28;120459;-68
2022/09/22 01:34:40;;;;;;;11.98;9.95;;;;;;;10.98;55.36;102386.97;4859421;28;119106;-68
2022/09/22 01:37:28;;;;;;;11.75;9.88;;;;;;;10.96;55.41;102388.75;4868424;28;123704;-68
2022/09/22 01:40:17;;;;;;;12.90;9.93;;;;;;;10.95;55.23;102391.47;4879842;28;125518;-68
2022/09/22 01:42:57;;;;;;;13.27;10.15;;;;;;;10.92;55.37;102392.38;4863289;28;119973;-68
2022/09/22 01:45:31;;;;;;;13.23;10.52;;;;;;;10.89;55.34;102389.81;4884810;28;118915;-68
2022/09/22 01:48:08;;;;;;;14.45;10.57;;;;;;;10.87;55.53;102383.69;4869931;28;124594;-68
2022/09/22 01:50:45;;;;;;;14.35;10.73;;;;;;;10.86;55.71;102381.94;4862344;28;123803;-68
2022/09/22 01:53:17;;;;;;;11.50;9.68;;;;;;;10.85;55.44;102382.81;4862282;28;119280;-68
2022/09/22 01:55:50;;;;;;;14.88;10.18;;;;;;;10.83;55.18;102376.69;4855276;28;119205;-69
2022/09/22 01:58:23;;;;;;;13.20;9.90;;;;;;;10.82;55.32;102374.94;4866981;28;123603;-68
2022/09/22 02:00:55;;;;;;;12.35;9.27;;;;;;;10.80;55.35;102368.81;4880510;28;124136;-68
2022/09/22 02:03:34;;;;;;;12.65;9.90;;;;;;;10.78;55.37;102367.97;4888833;28;118460;-68
2022/09/22 02:06:13;;;;;;;12.30;9.60;;;;;;;10.76;55.39;102359.19;4883249;28;119622;-68
2022/09/22 02:08:58;;;;;;;13.93;9.27;;;;;;;10.74;55.47;102355.69;4884249;28;124694;-68
2022/09/22 02:11:25;;;;;;;12.43;9.50;;;;;;;10.70;55.41;102355.75;4873655;28;123943;-68
2022/09/22 02:13:52;;;;;;;11.60;9.93;;;;;;;10.68;55.55;102356.69;4878763;28;119389;-68
2022/09/22 02:16:22;;;;;;;11.45;9.23;;;;;;;10.66;55.40;102354.09;4879975;28;119601;-68
2022/09/22 02:19:01;;;;;;;11.80;9.68;;;;;;;10.63;55.65;102354.13;4871480;28;125479;-68
2022/09/22 02:21:42;;;;;;;14.02;9.38;;;;;;;10.63;55.41;102354.13;4875961;28;126154;-68
2022/09/22 02:24:27;;;;;;;11.65;9.13;;;;;;;10.60;55.54;102354.19;4901737;28;119834;-68
2022/09/22 02:26:57;;;;;;;12.77;9.60;;;;;;;10.57;55.32;102348.97;4875717;28;118978;-68
2022/09/22 02:29:29;;;;;;;11.40;9.23;;;;;;;10.55;55.31;102345.50;4881289;28;124306;-68
2022/09/22 02:31:58;;;;;;;11.35;9.57;;;;;;;10.55;55.46;102334.88;4882693;28;125335;-68
2022/09/22 02:34:27;;;;;;;11.70;9.40;;;;;;;10.53;55.64;102342.00;4887574;28;120343;-67
2022/09/22 02:37:44;;;;;;;12.85;9.75;;;;;;;10.51;55.56;102343.81;4873179;28;119765;-68
2022/09/22 02:40:21;;;;;;;11.15;9.20;;;;;;;10.49;55.48;102340.28;4848076;28;124731;-68
2022/09/22 02:42:57;;;;;;;12.13;9.45;;;;;;;10.48;55.57;102343.88;4870846;28;124618;-70
2022/09/22 02:45:39;;;;;;;11.15;8.38;;;;;;;10.45;55.70;102338.63;4867014;28;119290;-68
2022/09/22 02:48:16;;;;;;;10.02;8.43;;;;;;;10.45;55.56;102341.25;4865801;28;119306;-68
2022/09/22 02:50:43;;;;;;;10.68;8.60;;;;;;;10.44;55.39;102336.88;4858693;28;124324;-68
2022/09/22 02:53:13;;;;;;;10.55;8.25;;;;;;;10.43;55.50;102340.44;4887864;28;124329;-68
2022/09/22 02:55:41;;;;;;;12.07;9.10;;;;;;;10.41;55.64;102342.25;4880822;28;119716;-68
2022/09/22 02:58:08;;;;;;;11.30;8.63;;;;;;;10.42;55.76;102338.69;4884028;28;118888;-68
2022/09/22 03:00:35;;;;;;;12.10;8.55;;;;;;;10.38;55.62;102337.00;4876370;28;124841;-68
2022/09/22 03:03:03;;;;;;;10.02;8.90;;;;;;;10.37;55.73;102329.97;4884614;28;96871;-68
2022/09/22 03:05:30;;;;;;;10.65;8.27;;;;;;;10.36;55.80;102333.50;4883811;28;119476;-68
2022/09/22 03:07:58;;;;;;;10.88;8.35;;;;;;;10.36;55.80;102338.81;4880814;28;118809;-68
2022/09/22 03:10:25;;;;;;;9.95;8.20;;;;;;;10.33;56.04;102335.31;4860258;28;124391;-68
2022/09/22 03:12:52;;;;;;;9.43;7.68;;;;;;;10.32;55.96;102328.28;4891627;28;124609;-68
2022/09/22 03:15:39;;;;;;;10.60;8.35;;;;;;;10.32;56.04;102328.28;4898127;28;119336;-67
2022/09/22 03:18:06;;;;;;;10.30;7.68;;;;;;;10.30;56.07;102324.81;4880245;28;119064;-68
2022/09/22 03:20:33;;;;;;;10.27;7.80;;;;;;;10.29;55.97;102330.94;4886722;28;123931;-68
2022/09/22 03:23:00;;;;;;;10.00;6.95;;;;;;;10.27;55.72;102329.25;4882723;28;124493;-68
2022/09/22 03:25:27;;;;;;;8.10;6.50;;;;;;;10.25;55.65;102321.34;4877382;28;120021;-68
2022/09/22 03:27:54;;;;;;;7.55;6.00;;;;;;;10.24;55.84;102332.81;4880706;28;119928;-68
2022/09/22 03:30:21;;;;;;;7.20;6.50;;;;;;;10.22;55.52;102321.38;4872585;28;122954;-68
2022/09/22 03:32:48;;;;;;;7.38;5.50;;;;;;;10.21;55.76;102322.31;4880681;28;124067;-68
2022/09/22 03:35:15;;;;;;;7.22;5.63;;;;;;;10.18;55.71;102319.69;4882915;28;119760;-68
2022/09/22 03:37:42;;;;;;;8.68;5.93;;;;;;;10.17;55.80;102323.28;4882213;28;119578;-68
2022/09/22 03:40:09;;;;;;;6.25;5.63;;;;;;;10.14;55.72;102320.66;4881799;28;125404;-68
2022/09/22 03:42:36;;;;;;;9.40;5.80;;;;;;;10.13;55.89;102321.56;4876244;28;124395;-68
2022/09/22 03:45:04;;;;;;;7.50;6.20;;;;;;;10.10;55.85;102316.34;4886479;28;119235;-68
2022/09/22 03:47:31;;;;;;;9.00;6.03;;;;;;;10.08;56.03;102312.84;4871103;28;118774;-68
2022/09/22 03:49:58;;;;;;;6.40;5.78;;;;;;;10.06;56.18;102319.97;4867960;28;125158;-68
2022/09/22 03:52:26;;;;;;;6.70;5.93;;;;;;;10.05;56.00;102318.19;4863156;28;124308;-68
2022/09/22 03:54:53;;;;;;;10.30;6.07;;;;;;;10.03;55.88;102320.00;4858860;28;119227;-68
2022/09/22 03:57:20;;;;;;;12.88;6.50;;;;;;;10.01;56.00;102308.56;4886493;28;118886;-68
2022/09/22 03:59:47;;;;;;;9.90;5.95;;;;;;;10.00;56.19;102312.09;4900120;28;123339;-68
2022/09/22 04:02:15;;;;;;;7.95;6.05;;;;;;;9.99;56.44;102307.72;4879476;28;123877;-68
2022/09/22 04:04:42;;;;;;;9.27;6.60;;;;;;;9.99;56.19;102313.03;4891247;28;119502;-67
2022/09/22 04:07:09;;;;;;;7.97;6.28;;;;;;;9.99;56.43;102310.38;4872977;28;119511;-68
2022/09/22 04:09:36;;;;;;;7.97;6.55;;;;;;;9.98;56.43;102305.97;4857425;28;123960;-68
2022/09/22 04:12:03;;;;;;;8.27;6.55;;;;;;;9.98;56.16;102305.97;4869549;28;124055;-68
2022/09/22 04:14:30;;;;;;;7.72;6.50;;;;;;;9.96;56.38;102297.19;4881084;28;120853;-68
2022/09/22 04:16:57;;;;;;;8.23;6.18;;;;;;;9.96;56.22;102297.19;4875290;28;120315;-68
2022/09/22 04:19:24;;;;;;;8.57;6.18;;;;;;;9.93;56.42;102293.72;4877296;28;123252;-68
2022/09/22 04:21:51;;;;;;;9.90;6.93;;;;;;;9.89;56.15;102292.03;4877152;28;124439;-68
2022/09/22 04:24:23;;;;;;;10.68;7.55;;;;;;;9.88;56.26;102290.28;4886044;28;118345;-68
2022/09/22 04:26:50;;;;;;;8.68;7.13;;;;;;;9.88;56.28;102292.91;4883884;28;118653;-68
2022/09/22 04:29:37;;;;;;;9.27;7.22;;;;;;;9.88;56.50;102290.28;4875080;28;124743;-68
2022/09/22 04:32:04;;;;;;;8.48;7.20;;;;;;;9.87;56.30;102293.84;4859304;28;123707;-68
2022/09/22 04:34:32;;;;;;;10.50;6.85;;;;;;;9.86;56.64;102297.38;4867560;28;119617;-68
2022/09/22 04:36:59;;;;;;;8.88;6.90;;;;;;;9.86;56.42;102292.06;4871211;28;118874;-68
2022/09/22 04:39:27;;;;;;;7.75;6.95;;;;;;;9.86;56.41;102292.06;4889378;28;124286;-68
2022/09/22 04:41:54;;;;;;;8.80;6.78;;;;;;;9.85;56.31;102295.63;4869194;28;123675;-68
2022/09/22 04:44:22;;;;;;;9.20;6.53;;;;;;;9.84;56.33;102288.59;4871401;28;119895;-68
2022/09/22 04:46:49;;;;;;;8.50;6.72;;;;;;;9.82;56.47;102287.75;4869771;28;119104;-68
2022/09/22 04:49:17;;;;;;;7.90;6.55;;;;;;;9.80;56.33;102286.91;4871527;28;124309;-68
2022/09/22 04:51:44;;;;;;;7.30;6.18;;;;;;;9.79;56.37;102285.16;4871352;28;124719;-67
2022/09/22 04:54:13;;;;;;;8.77;6.80;;;;;;;9.79;56.50;102279.84;4886433;28;119398;-68
2022/09/22 04:56:41;;;;;;;10.05;6.28;;;;;;;9.78;56.28;102283.41;4870911;28;119519;-68
2022/09/22 04:59:08;;;;;;;9.52;6.43;;;;;;;9.76;56.45;102293.16;4871190;28;124944;-68
2022/09/22 05:01:35;;;;;;;10.80;6.40;;;;;;;9.75;56.45;102294.03;4883829;28;123113;-68
2022/09/22 05:04:02;;;;;;;9.75;6.57;;;;;;;9.72;56.23;102296.75;4870832;28;119394;-68
2022/09/22 05:06:30;;;;;;;10.18;6.75;;;;;;;9.70;56.38;102291.50;4866291;28;118767;-68
2022/09/22 05:08:57;;;;;;;12.70;6.45;;;;;;;9.70;56.35;102290.59;4869972;28;126661;-68
2022/09/22 05:11:24;;;;;;;7.50;6.20;;;;;;;9.68;56.54;102298.59;4870933;28;123846;-68
2022/09/22 05:13:51;;;;;;;9.15;6.85;;;;;;;9.68;56.52;102292.41;4869669;28;119193;-68
2022/09/22 05:16:18;;;;;;;7.88;6.63;;;;;;;9.66;56.52;102297.75;4868127;28;118188;-67
2022/09/22 05:18:48;;;;;;;9.75;6.90;;;;;;;9.65;56.53;102297.78;4865056;28;124579;-68
2022/09/22 05:21:17;;;;;;;13.32;6.85;;;;;;;9.64;56.49;102302.16;4870349;28;126475;-68
2022/09/22 05:23:45;;;;;;;12.43;6.90;;;;;;;9.63;56.59;102300.44;4870663;28;119057;-68
2022/09/22 05:26:12;;;;;;;9.68;7.07;;;;;;;9.63;56.59;102305.72;4860579;28;118788;-68
2022/09/22 05:28:39;;;;;;;10.20;7.32;;;;;;;9.62;56.55;102297.81;4875756;28;123951;-67
2022/09/22 05:31:06;;;;;;;14.57;7.40;;;;;;;9.61;56.65;102296.09;4887960;28;122982;-67
2022/09/22 05:33:33;;;;;;;11.40;7.00;;;;;;;9.61;56.67;102302.25;4873418;28;119570;-68
2022/09/22 05:36:01;;;;;;;11.48;7.40;;;;;;;9.61;56.41;102301.38;4893944;28;118041;-68
2022/09/22 05:38:28;;;;;;;7.95;7.13;;;;;;;9.62;56.82;102308.41;4873476;28;124180;-68
2022/09/22 05:40:55;;;;;;;9.63;6.47;;;;;;;9.62;57.23;102308.41;4870904;28;124117;-68
2022/09/22 05:43:22;;;;;;;10.82;7.25;;;;;;;9.63;57.07;102302.22;4865411;28;119343;-68
2022/09/22 05:45:49;;;;;;;11.68;7.70;;;;;;;9.64;57.33;102301.31;4862398;28;119079;-69
2022/09/22 05:48:16;;;;;;;12.48;7.43;;;;;;;9.65;56.96;102303.06;4870731;28;123989;-67
2022/09/22 05:50:44;;;;;;;10.80;7.53;;;;;;;9.66;56.93;102304.78;4875676;28;124357;-68
2022/09/22 05:53:12;;;;;;;11.18;7.93;;;;;;;9.66;57.19;102305.69;4894585;28;120121;-68
2022/09/22 05:55:39;;;;;;;14.40;7.88;;;;;;;9.68;57.53;102303.88;4894529;28;119379;-69
2022/09/22 05:58:10;;;;;;;10.20;7.97;;;;;;;9.70;57.25;102303.81;4867530;28;123941;-68
2022/09/22 06:00:39;;;;;;;10.73;7.53;;;;;;;9.72;57.65;102307.34;4881405;28;122685;-68
2022/09/22 06:03:06;;;;;;;10.98;8.63;;;;;;;9.74;57.52;102308.19;4870215;28;119600;-68
2022/09/22 06:05:34;;;;;;;13.30;8.35;;;;;;;9.77;57.38;102310.75;4865014;28;118880;-69
2022/09/22 06:08:05;;;;;;;13.48;8.65;;;;;;;9.78;57.49;102309.88;4874706;28;123640;-68
2022/09/22 06:10:34;;;;;;;12.75;9.15;;;;;;;9.80;57.61;102313.38;4874817;28;124207;-69
2022/09/22 06:13:03;;;;;;;12.02;9.13;;;;;;;9.81;57.87;102309.81;4871171;28;118479;-68
2022/09/22 06:15:33;;;;;;;13.90;10.18;;;;;;;9.86;57.80;102307.94;4887350;28;117813;-68
2022/09/22 06:18:01;;;;;;;16.77;10.45;;;;;;;9.89;57.90;102310.56;4868024;28;123760;-68
2022/09/22 06:20:28;;;;;;;17.23;10.75;;;;;;;9.94;57.89;102311.34;4872076;28;123971;-68
2022/09/22 06:22:55;;;;;;;19.08;11.38;;;;;;;10.02;58.06;102318.25;4873089;28;119745;-69
2022/09/22 06:25:22;;;;;;;17.23;12.93;;;;;;;10.12;58.20;102314.53;4862843;28;118823;-68
2022/09/22 06:28:04;;;;;;;21.73;13.25;;;;;;;10.25;58.94;102310.75;4869055;28;123959;-72
2022/09/22 06:30:33;;;;;;;26.58;14.00;;;;;;;10.43;59.01;102313.94;4884533;28;123066;-71
2022/09/22 06:33:00;;;;;;;26.85;14.52;;;;;;;10.58;58.94;102308.31;4874177;28;119046;-67
2022/09/22 06:35:36;;;;;;;25.33;14.43;;;;;;;10.76;59.10;102308.84;4882764;28;119323;-69
2022/09/22 06:38:08;;;;;;;25.38;14.73;;;;;;;10.95;59.64;102307.50;4873442;28;124061;-69
2022/09/22 06:40:35;;;;;;;24.63;15.43;;;;;;;11.16;59.24;102310.56;4871121;28;125358;-69
2022/09/22 06:43:10;;;;;;;17.48;14.07;;;;;;;11.35;59.66;102306.53;4884026;28;120522;-69
2022/09/22 06:45:38;;;;;;;20.10;14.38;;;;;;;11.56;59.50;102298.97;4852998;28;119167;-69
2022/09/22 06:48:06;;;;;;;20.23;14.45;;;;;;;11.78;59.75;102310.75;4871482;28;124453;-69
2022/09/22 06:50:39;;;;;;;16.80;14.13;;;;;;;12.01;59.85;102306.66;4868667;28;123922;-70
2022/09/22 06:53:10;;;;;;;20.60;13.88;;;;;;;12.23;59.40;102307.78;4882765;28;119121;-70
2022/09/22 06:55:40;;;;;;;20.73;14.23;;;;;;;12.46;59.60;102311.56;4865896;28;119267;-69
2022/09/22 06:58:07;;;;;;;21.88;13.73;;;;;;;12.69;59.53;102304.69;4874924;28;123823;-71
2022/09/22 07:00:35;;;;;;;17.50;13.35;;;;;;;12.89;59.36;102307.59;4874690;28;123692;-70
2022/09/22 07:03:07;;;;;;;14.55;12.18;;;;;;;13.10;58.91;102305.19;4875513;28;119054;-70
2022/09/22 07:05:38;;;;;;;16.20;12.40;;;;;;;13.27;58.96;102301.97;4872023;28;119537;-70
2022/09/22 07:08:07;;;;;;;14.55;11.85;;;;;;;13.44;59.00;102300.53;4870893;28;123837;-70
2022/09/22 07:10:36;;;;;;;17.33;12.30;;;;;;;13.65;58.98;102297.19;4876407;28;123421;-70
2022/09/22 07:13:04;;;;;;;15.02;11.88;;;;;;;13.85;58.92;102300.03;4864338;28;119989;-69
2022/09/22 07:15:33;;;;;;;17.17;12.48;;;;;;;14.06;58.73;102303.72;4872024;28;118825;-69
2022/09/22 07:18:02;;;;;;;13.15;11.25;;;;;;;14.23;58.25;102294.25;4884117;28;124041;-69
2022/09/22 07:20:30;;;;;;;13.90;11.35;;;;;;;14.34;57.99;102297.38;4876713;28;123072;-69
2022/09/22 07:22:59;;;;;;;15.10;11.18;;;;;;;14.42;57.84;102297.94;4873275;28;118304;-70
2022/09/22 07:25:27;;;;;;;14.07;10.93;;;;;;;14.52;57.82;102296.69;4872143;28;119650;-69
2022/09/22 07:27:58;;;;;;;14.15;10.82;;;;;;;14.66;57.75;102297.97;4878335;28;124646;-70
2022/09/22 07:30:25;;;;;;;15.88;10.27;;;;;;;14.79;57.50;102293.91;4882109;28;123818;-69
2022/09/22 07:32:52;;;;;;;13.05;10.13;;;;;;;14.89;57.16;102297.91;4877085;28;119578;-70
2022/09/22 07:35:19;;;;;;;13.25;10.70;;;;;;;15.01;57.06;102298.34;4880501;28;120148;-70
2022/09/22 07:37:46;;;;;;;19.08;11.07;;;;;;;15.14;56.84;102294.25;4879054;28;124560;-70
2022/09/22 07:40:13;;;;;;;15.27;10.70;;;;;;;15.28;56.97;102297.25;4879238;28;123771;-70
2022/09/22 07:42:40;;;;;;;18.33;10.50;;;;;;;15.41;56.62;102296.72;4883206;28;119002;-70
2022/09/22 07:45:11;;;;;;;13.93;10.57;;;;;;;15.54;56.75;102287.28;4872030;28;118976;-70
2022/09/22 07:50:24;;;;;;;;;;;;;;;15.79;56.54;102292.44;4879553;28;124243;-70
2022/09/22 07:52:52;;;;;;;11.88;9.48;;;;;;;15.90;56.08;102290.16;4892813;28;118535;-69
2022/09/22 07:55:23;;;;;;;14.55;10.70;;;;;;;16.01;56.15;102296.81;4870799;28;118602;-70
2022/09/22 07:57:58;;;;;;;13.40;10.60;;;;;;;16.10;56.26;102291.94;4884627;28;124664;-70
2022/09/22 08:00:28;;;;;;;16.05;11.27;;;;;;;16.23;55.75;102291.38;4868884;28;124229;-70
2022/09/22 08:02:56;;;;;;;13.73;10.00;;;;;;;16.33;55.91;102298.03;4870946;28;118582;-70
2022/09/22 08:05:25;;;;;;;13.77;10.60;;;;;;;16.44;55.37;102293.06;4885719;28;117349;-70
2022/09/22 08:07:57;;;;;;;15.98;10.77;;;;;;;16.52;55.26;102288.25;4859885;28;124229;-71
2022/09/22 08:10:25;;;;;;;14.90;10.45;;;;;;;16.61;54.94;102289.59;4868438;28;123780;-70
2022/09/22 08:12:53;;;;;;;16.45;11.60;;;;;;;16.70;55.10;102285.63;4862534;28;119379;-71
2022/09/22 08:15:21;;;;;;;15.20;11.50;;;;;;;16.76;54.41;102285.31;4872100;28;120284;-70
2022/09/22 08:18:02;;;;;;;16.88;11.63;;;;;;;16.81;54.37;102288.66;4869999;28;124852;-71
2022/09/22 08:20:29;;;;;;;16.98;11.20;;;;;;;16.86;54.28;102286.66;4871858;28;123903;-71
2022/09/22 08:23:03;;;;;;;17.98;11.82;;;;;;;16.95;54.45;102289.81;4873462;28;119927;-71
2022/09/22 08:25:30;;;;;;;18.00;11.93;;;;;;;17.04;54.08;102281.34;4867957;28;120108;-71
2022/09/22 08:27:59;;;;;;;17.65;11.55;;;;;;;17.13;53.81;102278.22;4862335;28;124019;-72
2022/09/22 08:30:26;;;;;;;15.07;12.52;;;;;;;17.21;54.13;102276.00;4875176;28;123754;-71
2022/09/22 08:32:53;;;;;;;16.90;11.50;;;;;;;17.30;53.75;102275.53;4874982;28;118717;-70
2022/09/22 08:35:20;;;;;;;15.93;11.75;;;;;;;17.37;53.35;102280.63;4873603;28;119928;-70
2022/09/22 08:37:49;;;;;;;19.27;12.43;;;;;;;17.41;53.53;102266.13;4873266;28;124694;-72
2022/09/22 08:40:19;;;;;;;16.42;12.02;;;;;;;17.47;54.00;102265.78;4872274;28;123547;-70
2022/09/22 08:42:47;;;;;;;14.40;11.70;;;;;;;17.58;53.93;102267.94;4869315;28;119241;-70
2022/09/22 08:45:20;;;;;;;17.25;11.43;;;;;;;17.68;53.26;102270.03;4859203;28;119167;-71
2022/09/22 08:53:55;;;;;;;15.65;10.07;;;;;;;17.94;52.57;102275.88;4882087;28;119433;-70
2022/09/22 08:56:57;;;;;;;13.90;10.35;;;;;;;18.00;52.31;102275.53;4870055;28;118630;-71
2022/09/22 08:59:34;;;;;;;15.65;9.63;;;;;;;18.05;51.97;102272.63;4868516;28;124501;-72
2022/09/22 09:02:22;;;;;;;17.83;9.65;;;;;;;18.16;51.87;102270.22;4869446;28;124066;-72
2022/09/22 09:04:59;;;;;;;12.93;8.43;;;;;;;18.25;51.77;102274.22;4872254;28;118903;-70
2022/09/22 09:07:29;;;;;;;14.60;9.73;;;;;;;18.35;52.08;102274.59;4879019;28;119655;-71
2022/09/22 09:10:21;;;;;;;12.35;9.18;;;;;;;18.47;51.59;102269.41;4874924;28;125703;-69
2022/09/22 09:12:48;;;;;;;14.65;8.88;;;;;;;18.59;51.30;102269.66;4856248;28;123796;-70
2022/09/22 09:15:40;;;;;;;13.57;8.32;;;;;;;18.68;50.90;102277.19;4869594;28;119726;-69
2022/09/22 09:18:14;;;;;;;15.63;8.90;;;;;;;18.79;50.48;102268.53;4868378;28;119995;-69
2022/09/22 09:20:45;;;;;;;10.30;8.77;;;;;;;18.90;50.77;102270.66;4889403;28;125729;-69
2022/09/22 09:23:28;;;;;;;13.43;8.95;;;;;;;19.02;50.35;102277.97;4877107;28;124865;-70
2022/09/22 09:26:17;;;;;;;10.55;8.25;;;;;;;19.14;50.41;102274.59;4858734;28;120231;-69
2022/09/22 09:28:49;;;;;;;10.55;8.00;;;;;;;19.23;49.86;102273.19;4884987;28;118735;-69
2022/09/22 09:31:26;;;;;;;13.38;8.25;;;;;;;19.31;49.58;102270.94;4872517;28;123159;-68
2022/09/22 09:33:57;;;;;;;11.35;8.70;;;;;;;19.39;49.85;102268.63;4881980;28;124134;-67
2022/09/22 09:36:30;;;;;;;12.10;8.52;;;;;;;19.47;49.57;102262.78;4883221;28;118336;-68
2022/09/22 09:38:58;;;;;;;12.18;8.23;;;;;;;19.60;49.90;102262.94;4868372;28;118496;-69
2022/09/22 09:41:31;;;;;;;11.30;8.10;;;;;;;19.71;49.53;102259.59;4880691;28;124114;-68
2022/09/22 09:44:00;;;;;;;11.07;8.20;;;;;;;19.82;48.86;102255.31;4876973;28;124173;-68
2022/09/22 09:46:49;;;;;;;10.02;7.93;;;;;;;19.90;48.90;102262.91;4872361;28;119253;-68
2022/09/22 09:49:19;;;;;;;13.02;8.02;;;;;;;20.02;49.02;102262.16;4867126;28;119016;-68
2022/09/22 09:51:50;;;;;;;8.23;7.20;;;;;;;20.12;47.84;102266.97;4883416;28;125308;-68
2022/09/22 09:54:18;;;;;;;12.43;7.43;;;;;;;20.19;48.24;102268.28;4880797;28;124839;-68
2022/09/22 09:57:09;;;;;;;9.38;7.15;;;;;;;20.29;48.07;102253.31;4870393;28;119176;-68
2022/09/22 10:02:45;;;;;;;9.32;6.05;;;;;;;20.46;46.61;102248.69;4872149;28;124229;-69
2022/09/22 10:05:15;;;;;;;8.85;5.75;;;;;;;20.49;46.23;102259.22;4869422;28;124506;-69
2022/09/22 10:07:45;;;;;;;8.73;5.55;;;;;;;20.53;46.08;102250.88;4881573;28;120582;-68
2022/09/22 10:10:28;;;;;;;7.30;5.47;;;;;;;20.59;45.88;102249.59;4875382;28;119940;-71
2022/09/22 10:12:58;;;;;;;7.03;4.82;;;;;;;20.63;45.40;102245.78;4862883;28;123602;-69
2022/09/22 10:15:25;;;;;;;5.55;4.30;;;;;;;20.67;45.23;102246.44;4884648;28;123869;-69
2022/09/22 10:17:52;;;;;;;6.20;4.50;;;;;;;20.70;45.44;102236.34;4878521;28;119123;-69
2022/09/22 10:20:30;;;;;;;7.05;4.70;;;;;;;20.77;45.22;102232.25;4879065;28;119233;-69
2022/09/22 10:23:20;;;;;;;6.00;4.28;;;;;;;20.87;45.37;102234.34;4867680;28;124680;-69
2022/09/22 10:25:49;;;;;;;5.05;3.70;;;;;;;20.96;45.06;102231.03;4867185;28;124477;-69
2022/09/22 10:28:18;;;;;;;6.45;4.25;;;;;;;21.06;45.00;102226.78;4862816;28;119177;-69
2022/09/22 10:31:02;;;;;;;5.00;4.03;;;;;;;21.13;44.45;102228.06;4889464;28;119437;-70
2022/09/22 10:33:30;;;;;;;4.45;3.92;;;;;;;21.19;44.66;102224.97;4871352;28;124184;-69
2022/09/22 10:36:09;;;;;;;4.60;3.85;;;;;;;21.27;44.07;102215.50;4868310;28;123284;-69
2022/09/22 10:38:41;;;;;;;7.07;4.15;;;;;;;21.36;44.13;102218.41;4869613;28;119280;-69
2022/09/22 10:41:12;;;;;;;7.30;3.65;;;;;;;21.44;43.72;102207.13;4869966;28;118052;-69
2022/09/22 10:43:42;;;;;;;4.95;3.30;;;;;;;21.54;42.72;102210.91;4875455;28;123814;-69
2022/09/22 10:46:22;;;;;;;4.47;3.40;;;;;;;21.61;42.49;102202.41;4871634;28;123823;-69
2022/09/22 10:48:59;;;;;;;7.00;3.55;;;;;;;21.65;42.95;102212.00;4870150;28;119294;-69
2022/09/22 10:51:38;;;;;;;4.57;3.10;;;;;;;21.74;42.58;102205.97;4877987;28;118923;-69
2022/09/22 10:54:21;;;;;;;6.70;3.20;;;;;;;21.84;42.48;102203.47;4884752;28;124133;-69
2022/09/22 10:56:52;;;;;;;5.50;3.35;;;;;;;21.93;42.07;102200.97;4872776;28;123697;-69
2022/09/22 10:59:31;;;;;;;7.05;3.90;;;;;;;21.99;41.70;102190.72;4890805;28;120074;-70
2022/09/22 11:02:34;;;;;;;6.57;3.60;;;;;;;21.99;41.93;102193.41;4874534;28;119931;-69
2022/09/22 11:14:34;;;;;;;5.15;2.60;;;;;;;22.19;41.29;102187.44;4869958;28;119174;-69
2022/09/22 11:17:39;;;;;;;3.72;2.90;;;;;;;22.25;41.41;102184.31;4867290;28;125019;-68
2022/09/22 11:20:51;;;;;;;4.88;3.00;;;;;;;22.31;41.26;102189.25;4873034;28;124270;-68
2022/09/22 11:23:44;;;;;;;5.22;3.15;;;;;;;22.35;40.34;102187.19;4816381;29;119427;-68
2022/09/22 11:26:39;;;;;;;5.35;2.90;;;;;;;22.33;40.46;102183.75;4872734;28;119370;-68
2022/09/22 11:29:44;;;;;;;5.43;3.05;;;;;;;22.32;40.65;102185.59;4883718;28;123347;-68
2022/09/22 11:32:44;;;;;;;4.53;3.10;;;;;;;22.34;40.90;102182.78;4871002;28;123615;-68
2022/09/22 11:35:46;;;;;;;4.10;2.90;;;;;;;22.31;40.42;102183.88;4870061;28;119369;-68
2022/09/22 11:38:40;;;;;;;4.70;3.08;;;;;;;22.26;40.16;102183.31;4872889;28;119489;-68
2022/09/22 11:41:36;;;;;;;3.83;2.40;;;;;;;22.20;40.08;102172.97;4882122;28;124026;-68
2022/09/22 11:44:34;;;;;;;3.63;2.70;;;;;;;22.18;39.75;102161.41;4852248;28;122877;-68
2022/09/22 11:47:09;;;;;;;4.13;2.50;;;;;;;22.16;39.87;102164.22;4859382;28;120072;-68
2022/09/22 11:49:55;;;;;;;4.50;2.60;;;;;;;22.19;39.97;102157.75;4872957;28;118722;-68
2022/09/22 11:52:52;;;;;;;2.97;2.13;;;;;;;22.16;39.73;102152.56;4870604;28;124347;-68
2022/09/22 11:55:50;;;;;;;3.50;1.98;;;;;;;22.18;39.85;102161.41;4865120;28;124355;-69
2022/09/22 11:58:21;;;;;;;4.70;2.20;;;;;;;22.23;39.79;102148.47;4875517;28;119901;-68
2022/09/22 12:01:06;;;;;;;3.88;2.40;;;;;;;22.26;38.99;102147.38;4889841;28;120162;-68